sensor_id;sensor_type;location;lat;lon;timestamp;P1;durP1;ratioP1;P2;durP2;ratioP2
62463;SDS011;48512;48.552;9.380;2023-06-14T00:00:35;5.78;;;4.20;;
62463;SDS011;48512;48.552;9.380;2023-06-14T00:03:02;7.15;;;4.38;;
62463;SDS011;48512;48.552;9.380;2023-06-14T00:05:29;6.25;;;4.35;;
62463;SDS011;48512;48.552;9.380;2023-06-14T00:07:58;5.50;;;4.15;;
62463;SDS011;48512;48.552;9.380;2023-06-14T00:10:26;7.82;;;4.38;;
62463;SDS011;48512;48.552;9.380;2023-06-14T00:12:56;8.57;;;4.20;;
62463;SDS011;48512;48.552;9.380;2023-06-14T00:15:22;6.70;;;4.65;;
62463;SDS011;48512;48.552;9.380;2023-06-14T00:17:49;11.52;;;4.50;;
62463;SDS011;48512;48.552;9.380;2023-06-14T00:20:15;6.97;;;4.55;;
62463;SDS011;48512;48.552;9.380;2023-06-14T00:22:41;6.20;;;4.10;;
62463;SDS011;48512;48.552;9.380;2023-06-14T00:25:08;5.40;;;4.07;;
62463;SDS011;48512;48.552;9.380;2023-06-14T00:27:34;6.22;;;4.50;;
62463;SDS011;48512;48.552;9.380;2023-06-14T00:30:00;5.63;;;3.92;;
62463;SDS011;48512;48.552;9.380;2023-06-14T00:32:26;7.00;;;4.22;;
62463;SDS011;48512;48.552;9.380;2023-06-14T00:34:55;5.95;;;4.32;;
62463;SDS011;48512;48.552;9.380;2023-06-14T00:37:21;7.72;;;4.00;;
62463;SDS011;48512;48.552;9.380;2023-06-14T00:39:47;7.47;;;4.20;;
62463;SDS011;48512;48.552;9.380;2023-06-14T00:42:23;7.00;;;4.60;;
62463;SDS011;48512;48.552;9.380;2023-06-14T00:44:51;10.32;;;4.53;;
62463;SDS011;48512;48.552;9.380;2023-06-14T00:47:18;6.40;;;4.20;;
62463;SDS011;48512;48.552;9.380;2023-06-14T00:49:45;6.20;;;4.38;;
62463;SDS011;48512;48.552;9.380;2023-06-14T00:52:22;5.97;;;4.13;;
62463;SDS011;48512;48.552;9.380;2023-06-14T00:54:50;6.15;;;4.15;;
62463;SDS011;48512;48.552;9.380;2023-06-14T00:57:17;7.25;;;4.13;;
62463;SDS011;48512;48.552;9.380;2023-06-14T00:59:44;7.10;;;4.30;;
62463;SDS011;48512;48.552;9.380;2023-06-14T01:02:12;6.65;;;4.50;;
62463;SDS011;48512;48.552;9.380;2023-06-14T01:04:39;6.72;;;4.30;;
62463;SDS011;48512;48.552;9.380;2023-06-14T01:07:12;5.53;;;4.32;;
62463;SDS011;48512;48.552;9.380;2023-06-14T01:15:24;6.57;;;4.00;;
62463;SDS011;48512;48.552;9.380;2023-06-14T01:17:50;5.85;;;4.40;;
62463;SDS011;48512;48.552;9.380;2023-06-14T01:20:23;5.80;;;4.00;;
62463;SDS011;48512;48.552;9.380;2023-06-14T01:22:55;6.70;;;4.50;;
62463;SDS011;48512;48.552;9.380;2023-06-14T01:25:21;7.40;;;4.18;;
62463;SDS011;48512;48.552;9.380;2023-06-14T01:27:49;5.28;;;3.90;;
62463;SDS011;48512;48.552;9.380;2023-06-14T01:30:25;5.88;;;4.63;;
62463;SDS011;48512;48.552;9.380;2023-06-14T01:32:53;6.50;;;4.03;;
62463;SDS011;48512;48.552;9.380;2023-06-14T01:35:21;5.78;;;4.05;;
62463;SDS011;48512;48.552;9.380;2023-06-14T01:37:48;9.27;;;4.20;;
62463;SDS011;48512;48.552;9.380;2023-06-14T01:40:15;6.32;;;4.20;;
62463;SDS011;48512;48.552;9.380;2023-06-14T01:42:43;5.43;;;4.22;;
62463;SDS011;48512;48.552;9.380;2023-06-14T01:45:12;7.70;;;4.53;;
62463;SDS011;48512;48.552;9.380;2023-06-14T01:47:39;5.45;;;3.40;;
62463;SDS011;48512;48.552;9.380;2023-06-14T01:50:06;6.32;;;4.10;;
62463;SDS011;48512;48.552;9.380;2023-06-14T01:52:32;5.90;;;4.13;;
62463;SDS011;48512;48.552;9.380;2023-06-14T01:54:58;5.97;;;4.18;;
62463;SDS011;48512;48.552;9.380;2023-06-14T01:57:29;5.60;;;3.92;;
62463;SDS011;48512;48.552;9.380;2023-06-14T01:59:56;4.78;;;3.80;;
62463;SDS011;48512;48.552;9.380;2023-06-14T02:02:22;9.15;;;4.38;;
62463;SDS011;48512;48.552;9.380;2023-06-14T02:04:48;9.38;;;5.18;;
62463;SDS011;48512;48.552;9.380;2023-06-14T02:07:14;6.63;;;3.95;;
62463;SDS011;48512;48.552;9.380;2023-06-14T02:09:41;7.18;;;4.32;;
62463;SDS011;48512;48.552;9.380;2023-06-14T02:12:07;6.03;;;3.92;;
62463;SDS011;48512;48.552;9.380;2023-06-14T02:14:34;6.05;;;4.25;;
62463;SDS011;48512;48.552;9.380;2023-06-14T02:17:00;5.75;;;3.88;;
62463;SDS011;48512;48.552;9.380;2023-06-14T02:19:26;5.88;;;4.13;;
62463;SDS011;48512;48.552;9.380;2023-06-14T02:21:53;8.57;;;4.10;;
62463;SDS011;48512;48.552;9.380;2023-06-14T02:24:19;6.57;;;4.13;;
62463;SDS011;48512;48.552;9.380;2023-06-14T02:26:45;6.47;;;4.40;;
62463;SDS011;48512;48.552;9.380;2023-06-14T02:29:14;6.20;;;4.00;;
62463;SDS011;48512;48.552;9.380;2023-06-14T02:31:42;6.65;;;4.22;;
62463;SDS011;48512;48.552;9.380;2023-06-14T02:34:08;7.10;;;4.25;;
62463;SDS011;48512;48.552;9.380;2023-06-14T02:36:34;7.97;;;4.22;;
62463;SDS011;48512;48.552;9.380;2023-06-14T02:39:11;8.32;;;4.55;;
62463;SDS011;48512;48.552;9.380;2023-06-14T02:41:37;5.47;;;4.13;;
62463;SDS011;48512;48.552;9.380;2023-06-14T02:44:04;6.97;;;4.32;;
62463;SDS011;48512;48.552;9.380;2023-06-14T02:46:30;7.35;;;4.43;;
62463;SDS011;48512;48.552;9.380;2023-06-14T02:48:56;7.10;;;4.53;;
62463;SDS011;48512;48.552;9.380;2023-06-14T02:51:22;5.10;;;3.83;;
62463;SDS011;48512;48.552;9.380;2023-06-14T02:53:49;7.15;;;4.97;;
62463;SDS011;48512;48.552;9.380;2023-06-14T02:56:16;8.38;;;4.50;;
62463;SDS011;48512;48.552;9.380;2023-06-14T02:58:43;9.50;;;4.35;;
62463;SDS011;48512;48.552;9.380;2023-06-14T03:01:09;7.78;;;4.03;;
62463;SDS011;48512;48.552;9.380;2023-06-14T03:03:38;7.93;;;4.53;;
62463;SDS011;48512;48.552;9.380;2023-06-14T03:06:05;7.00;;;4.35;;
62463;SDS011;48512;48.552;9.380;2023-06-14T03:08:33;4.82;;;3.97;;
62463;SDS011;48512;48.552;9.380;2023-06-14T03:11:07;6.35;;;4.15;;
62463;SDS011;48512;48.552;9.380;2023-06-14T03:13:35;7.68;;;4.78;;
62463;SDS011;48512;48.552;9.380;2023-06-14T03:16:03;9.20;;;4.70;;
62463;SDS011;48512;48.552;9.380;2023-06-14T03:18:33;6.82;;;4.40;;
62463;SDS011;48512;48.552;9.380;2023-06-14T03:21:02;5.95;;;4.15;;
62463;SDS011;48512;48.552;9.380;2023-06-14T03:23:30;6.18;;;4.35;;
62463;SDS011;48512;48.552;9.380;2023-06-14T03:25:57;6.07;;;4.18;;
62463;SDS011;48512;48.552;9.380;2023-06-14T03:28:23;6.20;;;4.45;;
62463;SDS011;48512;48.552;9.380;2023-06-14T03:30:51;8.70;;;4.40;;
62463;SDS011;48512;48.552;9.380;2023-06-14T03:33:17;8.38;;;4.15;;
62463;SDS011;48512;48.552;9.380;2023-06-14T03:35:44;6.78;;;4.47;;
62463;SDS011;48512;48.552;9.380;2023-06-14T03:38:10;9.35;;;4.07;;
62463;SDS011;48512;48.552;9.380;2023-06-14T03:40:37;6.80;;;4.65;;
62463;SDS011;48512;48.552;9.380;2023-06-14T03:43:05;7.25;;;4.22;;
62463;SDS011;48512;48.552;9.380;2023-06-14T03:45:31;5.03;;;3.53;;
62463;SDS011;48512;48.552;9.380;2023-06-14T03:47:59;9.27;;;4.75;;
62463;SDS011;48512;48.552;9.380;2023-06-14T03:50:27;11.18;;;5.50;;
62463;SDS011;48512;48.552;9.380;2023-06-14T03:52:53;9.80;;;5.68;;
62463;SDS011;48512;48.552;9.380;2023-06-14T03:55:20;8.95;;;4.80;;
62463;SDS011;48512;48.552;9.380;2023-06-14T03:57:47;6.55;;;4.40;;
62463;SDS011;48512;48.552;9.380;2023-06-14T04:00:16;6.88;;;4.75;;
62463;SDS011;48512;48.552;9.380;2023-06-14T04:02:44;10.05;;;4.95;;
62463;SDS011;48512;48.552;9.380;2023-06-14T04:05:10;11.32;;;6.28;;
62463;SDS011;48512;48.552;9.380;2023-06-14T04:07:41;8.43;;;4.43;;
62463;SDS011;48512;48.552;9.380;2023-06-14T04:10:11;6.70;;;4.50;;
62463;SDS011;48512;48.552;9.380;2023-06-14T04:12:38;5.95;;;4.57;;
62463;SDS011;48512;48.552;9.380;2023-06-14T04:15:05;12.02;;;4.10;;
62463;SDS011;48512;48.552;9.380;2023-06-14T04:17:32;7.57;;;5.07;;
62463;SDS011;48512;48.552;9.380;2023-06-14T04:19:59;7.63;;;5.22;;
62463;SDS011;48512;48.552;9.380;2023-06-14T04:22:26;8.43;;;5.10;;
62463;SDS011;48512;48.552;9.380;2023-06-14T04:24:58;6.78;;;4.72;;
62463;SDS011;48512;48.552;9.380;2023-06-14T04:27:26;7.15;;;5.10;;
62463;SDS011;48512;48.552;9.380;2023-06-14T04:29:53;8.55;;;4.60;;
62463;SDS011;48512;48.552;9.380;2023-06-14T04:32:28;7.30;;;4.38;;
62463;SDS011;48512;48.552;9.380;2023-06-14T04:35:05;10.93;;;5.00;;
62463;SDS011;48512;48.552;9.380;2023-06-14T04:37:33;8.82;;;4.95;;
62463;SDS011;48512;48.552;9.380;2023-06-14T04:40:00;10.80;;;5.07;;
62463;SDS011;48512;48.552;9.380;2023-06-14T04:42:27;9.48;;;5.43;;
62463;SDS011;48512;48.552;9.380;2023-06-14T04:44:57;8.32;;;5.00;;
62463;SDS011;48512;48.552;9.380;2023-06-14T04:47:27;7.57;;;4.70;;
62463;SDS011;48512;48.552;9.380;2023-06-14T04:49:57;10.68;;;5.03;;
62463;SDS011;48512;48.552;9.380;2023-06-14T04:52:23;8.55;;;4.82;;
62463;SDS011;48512;48.552;9.380;2023-06-14T04:54:52;9.80;;;5.00;;
62463;SDS011;48512;48.552;9.380;2023-06-14T04:57:21;6.38;;;4.65;;
62463;SDS011;48512;48.552;9.380;2023-06-14T04:59:49;9.45;;;5.18;;
62463;SDS011;48512;48.552;9.380;2023-06-14T05:02:23;9.32;;;5.35;;
62463;SDS011;48512;48.552;9.380;2023-06-14T05:04:51;9.80;;;5.65;;
62463;SDS011;48512;48.552;9.380;2023-06-14T05:07:18;7.95;;;5.40;;
62463;SDS011;48512;48.552;9.380;2023-06-14T05:09:46;9.98;;;5.45;;
62463;SDS011;48512;48.552;9.380;2023-06-14T05:12:13;7.55;;;5.15;;
62463;SDS011;48512;48.552;9.380;2023-06-14T05:14:39;9.02;;;5.18;;
62463;SDS011;48512;48.552;9.380;2023-06-14T05:17:06;7.78;;;5.40;;
62463;SDS011;48512;48.552;9.380;2023-06-14T05:19:32;9.82;;;6.20;;
62463;SDS011;48512;48.552;9.380;2023-06-14T05:21:59;8.43;;;5.65;;
62463;SDS011;48512;48.552;9.380;2023-06-14T05:24:25;10.18;;;6.75;;
62463;SDS011;48512;48.552;9.380;2023-06-14T05:26:51;12.15;;;7.20;;
62463;SDS011;48512;48.552;9.380;2023-06-14T05:29:17;10.90;;;7.35;;
62463;SDS011;48512;48.552;9.380;2023-06-14T05:31:43;21.33;;;8.32;;
62463;SDS011;48512;48.552;9.380;2023-06-14T05:34:10;11.23;;;7.32;;
62463;SDS011;48512;48.552;9.380;2023-06-14T05:36:36;12.50;;;6.80;;
62463;SDS011;48512;48.552;9.380;2023-06-14T05:39:02;9.65;;;6.57;;
62463;SDS011;48512;48.552;9.380;2023-06-14T05:41:30;9.23;;;7.30;;
62463;SDS011;48512;48.552;9.380;2023-06-14T05:43:56;10.25;;;6.55;;
62463;SDS011;48512;48.552;9.380;2023-06-14T05:46:23;12.85;;;6.60;;
62463;SDS011;48512;48.552;9.380;2023-06-14T05:51:18;12.80;;;7.07;;
62463;SDS011;48512;48.552;9.380;2023-06-14T05:53:45;10.90;;;7.03;;
62463;SDS011;48512;48.552;9.380;2023-06-14T05:56:12;10.75;;;6.72;;
62463;SDS011;48512;48.552;9.380;2023-06-14T05:58:39;11.20;;;7.30;;
62463;SDS011;48512;48.552;9.380;2023-06-14T06:01:05;11.45;;;6.78;;
62463;SDS011;48512;48.552;9.380;2023-06-14T06:03:31;9.98;;;6.40;;
62463;SDS011;48512;48.552;9.380;2023-06-14T06:05:58;10.30;;;6.70;;
62463;SDS011;48512;48.552;9.380;2023-06-14T06:08:25;9.75;;;6.40;;
62463;SDS011;48512;48.552;9.380;2023-06-14T06:10:52;9.93;;;6.63;;
62463;SDS011;48512;48.552;9.380;2023-06-14T06:13:18;9.32;;;6.53;;
62463;SDS011;48512;48.552;9.380;2023-06-14T06:15:45;9.88;;;6.55;;
62463;SDS011;48512;48.552;9.380;2023-06-14T06:18:11;8.23;;;6.38;;
62463;SDS011;48512;48.552;9.380;2023-06-14T06:20:37;9.50;;;6.25;;
62463;SDS011;48512;48.552;9.380;2023-06-14T06:23:03;10.18;;;5.90;;
62463;SDS011;48512;48.552;9.380;2023-06-14T06:25:30;11.00;;;6.10;;
62463;SDS011;48512;48.552;9.380;2023-06-14T06:27:57;9.73;;;6.82;;
62463;SDS011;48512;48.552;9.380;2023-06-14T06:30:24;10.95;;;6.60;;
62463;SDS011;48512;48.552;9.380;2023-06-14T06:32:51;10.48;;;6.50;;
62463;SDS011;48512;48.552;9.380;2023-06-14T06:35:17;8.02;;;6.18;;
62463;SDS011;48512;48.552;9.380;2023-06-14T06:37:43;8.55;;;6.18;;
62463;SDS011;48512;48.552;9.380;2023-06-14T06:40:09;11.50;;;6.30;;
62463;SDS011;48512;48.552;9.380;2023-06-14T06:42:36;8.13;;;6.43;;
62463;SDS011;48512;48.552;9.380;2023-06-14T06:45:04;8.65;;;6.22;;
62463;SDS011;48512;48.552;9.380;2023-06-14T06:47:32;9.15;;;6.38;;
62463;SDS011;48512;48.552;9.380;2023-06-14T06:49:58;8.32;;;5.93;;
62463;SDS011;48512;48.552;9.380;2023-06-14T06:52:24;12.82;;;6.20;;
62463;SDS011;48512;48.552;9.380;2023-06-14T06:54:50;11.30;;;6.22;;
62463;SDS011;48512;48.552;9.380;2023-06-14T06:57:20;11.10;;;7.35;;
62463;SDS011;48512;48.552;9.380;2023-06-14T06:59:48;13.32;;;6.20;;
62463;SDS011;48512;48.552;9.380;2023-06-14T07:02:15;9.77;;;6.40;;
62463;SDS011;48512;48.552;9.380;2023-06-14T07:04:42;13.90;;;6.40;;
62463;SDS011;48512;48.552;9.380;2023-06-14T07:07:08;9.40;;;6.55;;
62463;SDS011;48512;48.552;9.380;2023-06-14T07:09:35;7.97;;;6.07;;
62463;SDS011;48512;48.552;9.380;2023-06-14T07:12:02;8.98;;;6.38;;
62463;SDS011;48512;48.552;9.380;2023-06-14T07:14:28;10.05;;;5.97;;
62463;SDS011;48512;48.552;9.380;2023-06-14T07:16:55;7.47;;;5.43;;
62463;SDS011;48512;48.552;9.380;2023-06-14T07:19:22;9.38;;;6.03;;
62463;SDS011;48512;48.552;9.380;2023-06-14T07:21:48;12.43;;;5.95;;
62463;SDS011;48512;48.552;9.380;2023-06-14T07:24:14;9.93;;;6.15;;
62463;SDS011;48512;48.552;9.380;2023-06-14T07:26:41;6.70;;;5.45;;
62463;SDS011;48512;48.552;9.380;2023-06-14T07:29:07;10.70;;;5.57;;
62463;SDS011;48512;48.552;9.380;2023-06-14T07:31:33;8.73;;;5.50;;
62463;SDS011;48512;48.552;9.380;2023-06-14T07:33:59;10.35;;;6.38;;
62463;SDS011;48512;48.552;9.380;2023-06-14T07:36:25;10.45;;;5.85;;
62463;SDS011;48512;48.552;9.380;2023-06-14T07:38:51;8.48;;;6.20;;
62463;SDS011;48512;48.552;9.380;2023-06-14T07:41:18;10.77;;;5.72;;
62463;SDS011;48512;48.552;9.380;2023-06-14T07:43:44;11.80;;;6.47;;
62463;SDS011;48512;48.552;9.380;2023-06-14T07:46:10;9.32;;;6.32;;
62463;SDS011;48512;48.552;9.380;2023-06-14T07:48:36;8.13;;;6.45;;
62463;SDS011;48512;48.552;9.380;2023-06-14T07:51:03;10.27;;;6.70;;
62463;SDS011;48512;48.552;9.380;2023-06-14T07:53:29;7.55;;;6.32;;
62463;SDS011;48512;48.552;9.380;2023-06-14T07:55:56;8.45;;;5.95;;
62463;SDS011;48512;48.552;9.380;2023-06-14T07:58:23;7.35;;;6.22;;
62463;SDS011;48512;48.552;9.380;2023-06-14T08:00:49;10.73;;;7.57;;
62463;SDS011;48512;48.552;9.380;2023-06-14T08:03:15;8.18;;;6.35;;
62463;SDS011;48512;48.552;9.380;2023-06-14T08:05:41;13.30;;;6.70;;
62463;SDS011;48512;48.552;9.380;2023-06-14T08:08:08;10.27;;;6.47;;
62463;SDS011;48512;48.552;9.380;2023-06-14T08:10:34;7.22;;;6.40;;
62463;SDS011;48512;48.552;9.380;2023-06-14T08:13:00;8.02;;;6.00;;
62463;SDS011;48512;48.552;9.380;2023-06-14T08:15:26;7.90;;;6.15;;
62463;SDS011;48512;48.552;9.380;2023-06-14T08:17:52;9.82;;;6.60;;
62463;SDS011;48512;48.552;9.380;2023-06-14T08:20:18;11.70;;;6.38;;
62463;SDS011;48512;48.552;9.380;2023-06-14T08:22:44;14.27;;;6.90;;
62463;SDS011;48512;48.552;9.380;2023-06-14T08:25:12;9.18;;;6.30;;
62463;SDS011;48512;48.552;9.380;2023-06-14T08:27:39;10.23;;;6.40;;
62463;SDS011;48512;48.552;9.380;2023-06-14T08:30:06;8.30;;;5.97;;
62463;SDS011;48512;48.552;9.380;2023-06-14T08:32:34;10.43;;;6.07;;
62463;SDS011;48512;48.552;9.380;2023-06-14T08:35:00;8.82;;;5.63;;
62463;SDS011;48512;48.552;9.380;2023-06-14T08:37:26;15.32;;;6.53;;
62463;SDS011;48512;48.552;9.380;2023-06-14T08:39:52;8.07;;;5.60;;
62463;SDS011;48512;48.552;9.380;2023-06-14T08:42:18;7.38;;;6.03;;
62463;SDS011;48512;48.552;9.380;2023-06-14T08:44:48;7.43;;;5.57;;
62463;SDS011;48512;48.552;9.380;2023-06-14T08:47:15;9.05;;;5.40;;
62463;SDS011;48512;48.552;9.380;2023-06-14T08:49:44;5.70;;;5.10;;
62463;SDS011;48512;48.552;9.380;2023-06-14T08:52:14;8.55;;;5.10;;
62463;SDS011;48512;48.552;9.380;2023-06-14T08:54:44;10.02;;;5.03;;
62463;SDS011;48512;48.552;9.380;2023-06-14T08:57:11;9.02;;;5.50;;
62463;SDS011;48512;48.552;9.380;2023-06-14T08:59:44;9.43;;;5.57;;
62463;SDS011;48512;48.552;9.380;2023-06-14T09:02:12;10.05;;;5.15;;
62463;SDS011;48512;48.552;9.380;2023-06-14T09:04:39;7.20;;;5.57;;
62463;SDS011;48512;48.552;9.380;2023-06-14T09:07:05;5.90;;;5.03;;
62463;SDS011;48512;48.552;9.380;2023-06-14T09:09:32;8.75;;;4.72;;
62463;SDS011;48512;48.552;9.380;2023-06-14T09:12:00;7.05;;;5.70;;
62463;SDS011;48512;48.552;9.380;2023-06-14T09:14:26;6.75;;;5.22;;
62463;SDS011;48512;48.552;9.380;2023-06-14T09:16:53;7.60;;;5.38;;
62463;SDS011;48512;48.552;9.380;2023-06-14T09:19:23;7.20;;;5.40;;
62463;SDS011;48512;48.552;9.380;2023-06-14T09:21:50;8.93;;;4.95;;
62463;SDS011;48512;48.552;9.380;2023-06-14T09:24:19;8.73;;;5.40;;
62463;SDS011;48512;48.552;9.380;2023-06-14T09:26:48;8.15;;;5.05;;
62463;SDS011;48512;48.552;9.380;2023-06-14T09:29:16;8.35;;;5.10;;
62463;SDS011;48512;48.552;9.380;2023-06-14T09:31:46;7.32;;;5.05;;
62463;SDS011;48512;48.552;9.380;2023-06-14T09:36:39;5.80;;;5.18;;
62463;SDS011;48512;48.552;9.380;2023-06-14T09:39:08;5.22;;;4.70;;
62463;SDS011;48512;48.552;9.380;2023-06-14T09:44:05;7.55;;;5.30;;
62463;SDS011;48512;48.552;9.380;2023-06-14T09:46:36;9.57;;;5.28;;
62463;SDS011;48512;48.552;9.380;2023-06-14T09:49:03;6.20;;;4.90;;
62463;SDS011;48512;48.552;9.380;2023-06-14T09:51:30;5.50;;;4.80;;
62463;SDS011;48512;48.552;9.380;2023-06-14T09:54:00;8.15;;;5.22;;
62463;SDS011;48512;48.552;9.380;2023-06-14T09:56:37;6.57;;;5.55;;
62463;SDS011;48512;48.552;9.380;2023-06-14T09:59:06;6.25;;;5.15;;
62463;SDS011;48512;48.552;9.380;2023-06-14T10:01:35;8.20;;;5.10;;
62463;SDS011;48512;48.552;9.380;2023-06-14T10:04:08;8.05;;;5.20;;
62463;SDS011;48512;48.552;9.380;2023-06-14T10:06:36;10.13;;;5.15;;
62463;SDS011;48512;48.552;9.380;2023-06-14T10:09:05;9.95;;;5.20;;
62463;SDS011;48512;48.552;9.380;2023-06-14T10:11:34;5.38;;;4.88;;
62463;SDS011;48512;48.552;9.380;2023-06-14T10:14:01;6.10;;;5.28;;
62463;SDS011;48512;48.552;9.380;2023-06-14T10:19:18;7.45;;;5.05;;
62463;SDS011;48512;48.552;9.380;2023-06-14T10:21:58;6.95;;;4.80;;
62463;SDS011;48512;48.552;9.380;2023-06-14T10:24:35;6.15;;;4.80;;
62463;SDS011;48512;48.552;9.380;2023-06-14T10:27:06;8.20;;;5.18;;
62463;SDS011;48512;48.552;9.380;2023-06-14T10:30:14;5.70;;;4.88;;
62463;SDS011;48512;48.552;9.380;2023-06-14T10:32:33;8.45;;;5.28;;
62463;SDS011;48512;48.552;9.380;2023-06-14T10:35:06;8.30;;;4.03;;
62463;SDS011;48512;48.552;9.380;2023-06-14T10:37:33;7.07;;;4.80;;
62463;SDS011;48512;48.552;9.380;2023-06-14T10:39:59;10.43;;;4.78;;
62463;SDS011;48512;48.552;9.380;2023-06-14T10:42:29;5.60;;;4.13;;
62463;SDS011;48512;48.552;9.380;2023-06-14T10:44:58;7.75;;;4.38;;
62463;SDS011;48512;48.552;9.380;2023-06-14T10:50:04;7.82;;;4.65;;
62463;SDS011;48512;48.552;9.380;2023-06-14T10:52:32;4.78;;;4.15;;
62463;SDS011;48512;48.552;9.380;2023-06-14T10:55:13;5.88;;;4.10;;
62463;SDS011;48512;48.552;9.380;2023-06-14T10:57:48;4.80;;;4.03;;
62463;SDS011;48512;48.552;9.380;2023-06-14T11:00:22;5.70;;;4.32;;
62463;SDS011;48512;48.552;9.380;2023-06-14T11:10:59;7.70;;;4.28;;
62463;SDS011;48512;48.552;9.380;2023-06-14T11:13:26;4.75;;;4.20;;
62463;SDS011;48512;48.552;9.380;2023-06-14T11:15:52;7.45;;;4.25;;
62463;SDS011;48512;48.552;9.380;2023-06-14T11:18:21;4.87;;;4.10;;
62463;SDS011;48512;48.552;9.380;2023-06-14T11:20:50;5.85;;;4.68;;
62463;SDS011;48512;48.552;9.380;2023-06-14T11:23:16;6.22;;;4.40;;
62463;SDS011;48512;48.552;9.380;2023-06-14T11:25:43;7.55;;;5.05;;
62463;SDS011;48512;48.552;9.380;2023-06-14T11:28:09;8.88;;;4.82;;
62463;SDS011;48512;48.552;9.380;2023-06-14T11:30:35;7.22;;;4.88;;
62463;SDS011;48512;48.552;9.380;2023-06-14T11:33:01;5.55;;;4.43;;
62463;SDS011;48512;48.552;9.380;2023-06-14T11:35:28;8.27;;;4.97;;
62463;SDS011;48512;48.552;9.380;2023-06-14T11:37:57;5.82;;;4.45;;
62463;SDS011;48512;48.552;9.380;2023-06-14T11:40:24;7.80;;;4.63;;
62463;SDS011;48512;48.552;9.380;2023-06-14T11:42:57;5.82;;;5.05;;
62463;SDS011;48512;48.552;9.380;2023-06-14T11:45:25;7.05;;;4.50;;
62463;SDS011;48512;48.552;9.380;2023-06-14T11:47:51;5.38;;;4.63;;
62463;SDS011;48512;48.552;9.380;2023-06-14T11:50:20;6.88;;;4.75;;
62463;SDS011;48512;48.552;9.380;2023-06-14T11:52:52;7.65;;;4.60;;
62463;SDS011;48512;48.552;9.380;2023-06-14T11:55:19;5.03;;;4.50;;
62463;SDS011;48512;48.552;9.380;2023-06-14T11:57:46;5.90;;;5.10;;
62463;SDS011;48512;48.552;9.380;2023-06-14T12:00:12;9.20;;;4.72;;
62463;SDS011;48512;48.552;9.380;2023-06-14T12:02:41;6.15;;;4.38;;
62463;SDS011;48512;48.552;9.380;2023-06-14T12:05:07;4.95;;;4.40;;
62463;SDS011;48512;48.552;9.380;2023-06-14T12:07:36;6.05;;;4.65;;
62463;SDS011;48512;48.552;9.380;2023-06-14T12:10:04;5.65;;;4.30;;
62463;SDS011;48512;48.552;9.380;2023-06-14T12:12:37;5.40;;;4.25;;
62463;SDS011;48512;48.552;9.380;2023-06-14T12:15:04;12.80;;;5.15;;
62463;SDS011;48512;48.552;9.380;2023-06-14T12:17:32;4.80;;;4.30;;
62463;SDS011;48512;48.552;9.380;2023-06-14T12:20:04;6.70;;;4.40;;
62463;SDS011;48512;48.552;9.380;2023-06-14T12:22:33;6.85;;;4.60;;
62463;SDS011;48512;48.552;9.380;2023-06-14T12:24:59;8.02;;;4.22;;
62463;SDS011;48512;48.552;9.380;2023-06-14T12:27:25;5.40;;;4.40;;
62463;SDS011;48512;48.552;9.380;2023-06-14T12:30:01;7.10;;;4.80;;
62463;SDS011;48512;48.552;9.380;2023-06-14T12:32:28;7.03;;;4.50;;
62463;SDS011;48512;48.552;9.380;2023-06-14T12:34:55;6.50;;;4.45;;
62463;SDS011;48512;48.552;9.380;2023-06-14T12:37:21;5.72;;;4.40;;
62463;SDS011;48512;48.552;9.380;2023-06-14T12:39:47;5.60;;;3.97;;
62463;SDS011;48512;48.552;9.380;2023-06-14T12:42:14;5.65;;;4.43;;
62463;SDS011;48512;48.552;9.380;2023-06-14T12:44:40;6.03;;;4.97;;
62463;SDS011;48512;48.552;9.380;2023-06-14T12:47:07;7.63;;;4.82;;
62463;SDS011;48512;48.552;9.380;2023-06-14T12:49:33;5.40;;;4.32;;
62463;SDS011;48512;48.552;9.380;2023-06-14T12:51:59;4.35;;;3.95;;
62463;SDS011;48512;48.552;9.380;2023-06-14T12:54:25;5.43;;;4.30;;
62463;SDS011;48512;48.552;9.380;2023-06-14T12:56:51;4.78;;;4.28;;
62463;SDS011;48512;48.552;9.380;2023-06-14T12:59:18;5.60;;;4.80;;
62463;SDS011;48512;48.552;9.380;2023-06-14T13:01:45;8.65;;;4.55;;
62463;SDS011;48512;48.552;9.380;2023-06-14T13:04:13;5.10;;;4.25;;
62463;SDS011;48512;48.552;9.380;2023-06-14T13:06:39;7.10;;;4.20;;
62463;SDS011;48512;48.552;9.380;2023-06-14T13:09:05;7.35;;;4.50;;
62463;SDS011;48512;48.552;9.380;2023-06-14T13:11:31;4.60;;;4.20;;
62463;SDS011;48512;48.552;9.380;2023-06-14T13:13:57;8.80;;;4.38;;
62463;SDS011;48512;48.552;9.380;2023-06-14T13:16:23;5.30;;;4.53;;
62463;SDS011;48512;48.552;9.380;2023-06-14T13:18:50;6.95;;;4.55;;
62463;SDS011;48512;48.552;9.380;2023-06-14T13:21:16;4.57;;;4.18;;
62463;SDS011;48512;48.552;9.380;2023-06-14T13:23:42;9.77;;;4.40;;
62463;SDS011;48512;48.552;9.380;2023-06-14T13:26:08;7.07;;;4.97;;
62463;SDS011;48512;48.552;9.380;2023-06-14T13:28:34;6.22;;;4.78;;
62463;SDS011;48512;48.552;9.380;2023-06-14T13:31:01;6.78;;;4.20;;
62463;SDS011;48512;48.552;9.380;2023-06-14T13:33:27;7.10;;;4.78;;
62463;SDS011;48512;48.552;9.380;2023-06-14T13:35:53;6.43;;;4.60;;
62463;SDS011;48512;48.552;9.380;2023-06-14T13:38:20;5.18;;;4.68;;
62463;SDS011;48512;48.552;9.380;2023-06-14T13:40:46;7.53;;;4.75;;
62463;SDS011;48512;48.552;9.380;2023-06-14T13:43:12;6.70;;;4.55;;
62463;SDS011;48512;48.552;9.380;2023-06-14T13:45:38;6.20;;;4.28;;
62463;SDS011;48512;48.552;9.380;2023-06-14T13:48:04;5.63;;;4.20;;
62463;SDS011;48512;48.552;9.380;2023-06-14T13:50:31;8.00;;;4.40;;
62463;SDS011;48512;48.552;9.380;2023-06-14T13:52:57;5.95;;;4.68;;
62463;SDS011;48512;48.552;9.380;2023-06-14T13:55:23;5.93;;;4.80;;
62463;SDS011;48512;48.552;9.380;2023-06-14T13:57:49;6.10;;;4.43;;
62463;SDS011;48512;48.552;9.380;2023-06-14T14:00:16;6.75;;;4.57;;
62463;SDS011;48512;48.552;9.380;2023-06-14T14:02:43;6.97;;;4.65;;
62463;SDS011;48512;48.552;9.380;2023-06-14T14:05:09;7.07;;;4.85;;
62463;SDS011;48512;48.552;9.380;2023-06-14T14:07:35;7.13;;;4.20;;
62463;SDS011;48512;48.552;9.380;2023-06-14T14:10:02;6.80;;;4.75;;
62463;SDS011;48512;48.552;9.380;2023-06-14T14:12:28;5.50;;;4.45;;
62463;SDS011;48512;48.552;9.380;2023-06-14T14:14:54;5.75;;;4.30;;
62463;SDS011;48512;48.552;9.380;2023-06-14T14:17:20;5.78;;;4.57;;
62463;SDS011;48512;48.552;9.380;2023-06-14T14:19:47;5.45;;;4.80;;
62463;SDS011;48512;48.552;9.380;2023-06-14T14:22:13;6.93;;;5.10;;
62463;SDS011;48512;48.552;9.380;2023-06-14T14:24:39;6.28;;;4.82;;
62463;SDS011;48512;48.552;9.380;2023-06-14T14:27:05;5.75;;;4.38;;
62463;SDS011;48512;48.552;9.380;2023-06-14T14:29:32;6.78;;;5.07;;
62463;SDS011;48512;48.552;9.380;2023-06-14T14:31:58;5.63;;;4.78;;
62463;SDS011;48512;48.552;9.380;2023-06-14T14:34:24;7.82;;;4.72;;
62463;SDS011;48512;48.552;9.380;2023-06-14T14:36:51;7.97;;;4.63;;
62463;SDS011;48512;48.552;9.380;2023-06-14T14:39:17;8.35;;;5.03;;
62463;SDS011;48512;48.552;9.380;2023-06-14T14:41:43;9.75;;;4.85;;
62463;SDS011;48512;48.552;9.380;2023-06-14T14:44:09;6.32;;;4.90;;
62463;SDS011;48512;48.552;9.380;2023-06-14T14:46:35;6.15;;;4.22;;
62463;SDS011;48512;48.552;9.380;2023-06-14T14:49:01;7.05;;;4.40;;
62463;SDS011;48512;48.552;9.380;2023-06-14T14:51:28;8.85;;;5.07;;
62463;SDS011;48512;48.552;9.380;2023-06-14T14:53:54;6.20;;;4.95;;
62463;SDS011;48512;48.552;9.380;2023-06-14T14:56:21;6.93;;;5.07;;
62463;SDS011;48512;48.552;9.380;2023-06-14T14:58:48;6.53;;;4.43;;
62463;SDS011;48512;48.552;9.380;2023-06-14T15:01:15;7.55;;;5.13;;
62463;SDS011;48512;48.552;9.380;2023-06-14T15:03:41;5.35;;;4.85;;
62463;SDS011;48512;48.552;9.380;2023-06-14T15:06:07;6.18;;;4.78;;
62463;SDS011;48512;48.552;9.380;2023-06-14T15:08:33;8.10;;;4.78;;
62463;SDS011;48512;48.552;9.380;2023-06-14T15:11:00;6.57;;;4.85;;
62463;SDS011;48512;48.552;9.380;2023-06-14T15:13:27;5.43;;;4.93;;